Time;durP1;ratioP1;P1;durP2;ratioP2;P2;SDS_P1;SDS_P2;PMS_P1;PMS_P2;Temp;Humidity;BMP_temperature;BMP_pressure;BME280_temperature;BME280_humidity;BME280_pressure;Samples;Min_cycle;Max_cycle;Signal;HPM_P1;HPM_P2
2022/11/08 00:01:53;;;;;;;;;;;11.40;90.00;;;;;;5064683;28;19957;-60
2022/11/08 00:04:18;;;;;;;;;;;11.50;89.70;;;;;;5041047;28;19908;-59
2022/11/08 00:14:56;;;;;;;;;;;11.60;90.10;;;;;;5061725;28;19919;-63
2022/11/08 00:17:23;;;;;;;;;;;11.70;90.20;;;;;;5073474;28;19909;-63
2022/11/08 00:19:48;;;;;;;;;;;11.70;90.00;;;;;;5056977;28;19916;-60
2022/11/08 00:22:14;;;;;;;;;;;11.80;89.30;;;;;;5037472;28;19905;-62
2022/11/08 00:24:40;;;;;;;;;;;11.70;89.10;;;;;;5055111;28;19971;-63
2022/11/08 00:27:07;;;;;;;;;;;11.80;88.90;;;;;;5059503;28;20266;-62
2022/11/08 00:29:34;;;;;;;;;;;11.80;89.00;;;;;;5060147;28;19912;-61
2022/11/08 00:31:59;;;;;;;;;;;11.80;88.90;;;;;;5054845;28;19905;-62
2022/11/08 00:34:25;;;;;;;;;;;11.70;89.40;;;;;;5055936;28;19918;-63
2022/11/08 00:36:51;;;;;;;;;;;11.40;90.40;;;;;;5055206;28;19999;-63
2022/11/08 00:39:16;;;;;;;;;;;11.20;90.80;;;;;;5069318;28;19960;-61
2022/11/08 00:41:42;;;;;;;;;;;11.20;90.80;;;;;;5074631;28;19978;-61
2022/11/08 00:44:07;;;;;;;;;;;11.30;90.80;;;;;;5074325;28;19912;-62
2022/11/08 00:46:34;;;;;;;;;;;11.30;90.80;;;;;;5056585;28;20272;-61
2022/11/08 00:49:00;;;;;;;;;;;11.20;90.60;;;;;;5063521;28;19919;-62
2022/11/08 00:51:25;;;;;;;;;;;11.30;90.70;;;;;;5072723;28;19912;-61
2022/11/08 00:53:51;;;;;;;;;;;11.20;90.60;;;;;;5074190;28;19912;-62
2022/11/08 00:56:16;;;;;;;;;;;11.10;90.80;;;;;;5074393;28;19951;-61
2022/11/08 00:58:42;;;;;;;;;;;11.00;91.20;;;;;;5067863;28;19908;-62
2022/11/08 01:01:09;;;;;;;;;;;10.90;91.10;;;;;;5067014;28;20372;-63
2022/11/08 01:03:35;;;;;;;;;;;10.80;91.10;;;;;;5074109;28;19915;-61
2022/11/08 01:06:02;;;;;;;;;;;10.90;91.10;;;;;;5056206;28;19908;-61
2022/11/08 01:08:28;;;;;;;;;;;11.00;90.90;;;;;;5069369;28;20038;-62
2022/11/08 01:10:54;;;;;;;;;;;11.10;91.20;;;;;;5036491;28;20464;-60
2022/11/08 01:13:20;;;;;;;;;;;11.00;90.90;;;;;;5064944;28;20543;-60
2022/11/08 01:15:46;;;;;;;;;;;10.90;90.80;;;;;;5072220;28;19913;-63
2022/11/08 01:18:12;;;;;;;;;;;11.00;91.10;;;;;;5053787;28;20392;-62
2022/11/08 01:20:38;;;;;;;;;;;11.00;91.00;;;;;;5055149;28;19912;-58
2022/11/08 01:23:04;;;;;;;;;;;11.10;91.00;;;;;;5066482;28;20379;-61
2022/11/08 01:25:30;;;;;;;;;;;11.20;90.80;;;;;;5054300;28;20315;-63
2022/11/08 01:27:55;;;;;;;;;;;11.20;91.10;;;;;;5070384;28;19913;-60
2022/11/08 01:30:21;;;;;;;;;;;11.30;90.70;;;;;;5057058;28;19920;-63
2022/11/08 01:32:46;;;;;;;;;;;11.40;90.30;;;;;;5071171;28;19919;-60
2022/11/08 01:35:12;;;;;;;;;;;11.40;90.20;;;;;;5067585;28;19952;-63
2022/11/08 01:37:37;;;;;;;;;;;11.50;90.10;;;;;;5061668;28;19955;-61
2022/11/08 01:40:04;;;;;;;;;;;11.20;90.60;;;;;;5056691;28;19909;-62
2022/11/08 01:42:30;;;;;;;;;;;11.00;91.20;;;;;;5056686;28;19915;-63
2022/11/08 01:44:56;;;;;;;;;;;11.00;91.40;;;;;;5071818;28;19938;-61
2022/11/08 01:47:22;;;;;;;;;;;11.10;91.20;;;;;;5069399;28;19995;-60
2022/11/08 01:49:48;;;;;;;;;;;11.10;91.30;;;;;;5053466;28;19908;-59
2022/11/08 01:52:14;;;;;;;;;;;11.10;91.50;;;;;;5056431;28;19969;-61
2022/11/08 01:54:46;;;;;;;;;;;11.10;91.40;;;;;;5055128;28;20429;-63
2022/11/08 01:57:14;;;;;;;;;;;11.20;91.00;;;;;;5072925;28;19909;-60
2022/11/08 01:59:41;;;;;;;;;;;11.30;91.40;;;;;;5059939;28;19908;-62
2022/11/08 02:02:07;;;;;;;;;;;11.30;91.10;;;;;;5065036;28;19912;-61
2022/11/08 02:04:33;;;;;;;;;;;11.30;91.00;;;;;;5060265;28;19909;-63
2022/11/08 02:06:59;;;;;;;;;;;11.40;90.90;;;;;;5053214;28;19904;-63
2022/11/08 02:09:25;;;;;;;;;;;11.40;90.70;;;;;;5045702;28;19930;-60
2022/11/08 02:11:52;;;;;;;;;;;11.40;90.70;;;;;;5061282;28;20365;-61
2022/11/08 02:14:17;;;;;;;;;;;11.40;90.90;;;;;;5068890;28;19908;-63
2022/11/08 02:16:43;;;;;;;;;;;11.40;90.70;;;;;;5053502;28;19915;-61
2022/11/08 02:19:14;;;;;;;;;;;11.50;90.60;;;;;;5060908;28;20364;-62
2022/11/08 02:21:52;;;;;;;;;;;11.60;90.40;;;;;;5054909;28;19914;-63
2022/11/08 02:24:17;;;;;;;;;;;11.60;90.30;;;;;;5072054;28;20019;-62
2022/11/08 02:26:46;;;;;;;;;;;11.70;90.30;;;;;;5072195;28;19943;-59
2022/11/08 02:29:23;;;;;;;;;;;11.60;90.20;;;;;;5064144;28;19954;-61
2022/11/08 02:31:48;;;;;;;;;;;11.50;90.50;;;;;;5053945;28;19917;-61
2022/11/08 02:34:14;;;;;;;;;;;11.50;90.80;;;;;;5060097;28;20341;-60
2022/11/08 02:36:41;;;;;;;;;;;11.40;90.70;;;;;;5062444;28;19908;-62
2022/11/08 02:39:07;;;;;;;;;;;11.40;90.80;;;;;;5064433;28;19919;-60
2022/11/08 02:41:32;;;;;;;;;;;11.40;90.60;;;;;;5052600;28;19910;-63
2022/11/08 02:43:58;;;;;;;;;;;11.50;90.70;;;;;;5052433;28;20003;-64
2022/11/08 02:46:23;;;;;;;;;;;11.50;90.40;;;;;;5052626;28;19952;-61
2022/11/08 02:48:49;;;;;;;;;;;11.50;90.60;;;;;;5054443;28;19908;-61
2022/11/08 02:51:14;;;;;;;;;;;11.60;90.60;;;;;;5052413;28;19904;-61
2022/11/08 02:53:40;;;;;;;;;;;11.60;90.30;;;;;;5053226;28;19939;-63
2022/11/08 02:56:06;;;;;;;;;;;11.70;90.40;;;;;;5052374;28;19913;-61
2022/11/08 02:58:31;;;;;;;;;;;11.60;90.50;;;;;;5061793;28;19958;-62
2022/11/08 03:00:57;;;;;;;;;;;11.60;90.60;;;;;;5059150;28;19920;-63
2022/11/08 03:03:22;;;;;;;;;;;11.70;90.30;;;;;;5052202;28;19936;-63
2022/11/08 03:05:48;;;;;;;;;;;11.70;90.00;;;;;;5058782;28;19994;-61
2022/11/08 03:08:13;;;;;;;;;;;11.70;89.80;;;;;;5054074;28;19905;-61
2022/11/08 03:10:39;;;;;;;;;;;11.80;89.60;;;;;;5072232;28;19991;-60
2022/11/08 03:13:05;;;;;;;;;;;11.80;89.30;;;;;;5072116;28;20292;-60
2022/11/08 03:15:32;;;;;;;;;;;11.80;89.30;;;;;;5072310;28;19904;-60
2022/11/08 03:17:58;;;;;;;;;;;11.80;89.60;;;;;;5065524;28;19905;-63
2022/11/08 03:20:24;;;;;;;;;;;11.70;89.50;;;;;;5051805;28;19908;-62
2022/11/08 03:23:00;;;;;;;;;;;11.60;90.30;;;;;;5052019;28;19982;-61
2022/11/08 03:25:26;;;;;;;;;;;11.70;90.30;;;;;;5052081;28;19909;-61
2022/11/08 03:27:52;;;;;;;;;;;11.70;90.20;;;;;;5051993;28;19991;-63
2022/11/08 03:30:17;;;;;;;;;;;11.70;90.00;;;;;;5051440;28;19905;-60
2022/11/08 03:32:44;;;;;;;;;;;11.80;89.60;;;;;;5062107;28;20122;-63
2022/11/08 03:35:09;;;;;;;;;;;11.70;90.50;;;;;;5065244;28;19909;-60
2022/11/08 03:37:35;;;;;;;;;;;11.70;90.10;;;;;;5062050;28;20517;-63
2022/11/08 03:40:00;;;;;;;;;;;11.70;90.10;;;;;;5071363;28;20276;-63
2022/11/08 03:42:26;;;;;;;;;;;11.80;90.00;;;;;;5064383;28;19934;-61
2022/11/08 03:44:51;;;;;;;;;;;11.90;89.40;;;;;;5033898;28;20277;-62
2022/11/08 03:47:17;;;;;;;;;;;12.00;89.20;;;;;;5052959;28;19908;-62
2022/11/08 03:49:42;;;;;;;;;;;12.00;89.80;;;;;;5055375;28;19912;-61
2022/11/08 03:52:08;;;;;;;;;;;11.90;90.10;;;;;;5062060;28;19962;-61
2022/11/08 03:54:33;;;;;;;;;;;11.90;90.00;;;;;;5034807;28;21199;-60
2022/11/08 03:56:59;;;;;;;;;;;11.90;89.90;;;;;;5069527;28;19958;-62
2022/11/08 03:59:25;;;;;;;;;;;11.90;89.60;;;;;;5063718;28;19925;-60
2022/11/08 04:01:50;;;;;;;;;;;11.90;89.60;;;;;;5052613;28;19912;-63
2022/11/08 04:04:16;;;;;;;;;;;11.90;88.90;;;;;;5061061;28;19913;-63
2022/11/08 04:06:41;;;;;;;;;;;11.90;89.10;;;;;;5063346;28;19909;-64
2022/11/08 04:09:07;;;;;;;;;;;11.80;89.10;;;;;;5062033;28;19908;-62
2022/11/08 04:17:00;;;;;;;;;;;11.80;89.20;;;;;;5069928;28;19943;-62
2022/11/08 04:22:10;;;;;;;;;;;11.70;89.40;;;;;;5051053;28;19916;-62
2022/11/08 04:24:36;;;;;;;;;;;11.70;89.60;;;;;;5051314;28;19908;-62
2022/11/08 04:27:01;;;;;;;;;;;11.60;89.50;;;;;;5052124;28;19909;-63
2022/11/08 04:29:27;;;;;;;;;;;11.70;89.70;;;;;;5059145;28;20134;-60
2022/11/08 04:31:53;;;;;;;;;;;11.60;90.00;;;;;;5042720;28;19912;-62
2022/11/08 04:34:18;;;;;;;;;;;11.60;90.30;;;;;;5069677;28;19908;-61
2022/11/08 04:36:44;;;;;;;;;;;11.50;90.70;;;;;;5068138;28;19962;-62
2022/11/08 04:39:09;;;;;;;;;;;11.50;90.50;;;;;;5054415;28;19958;-61
2022/11/08 04:41:35;;;;;;;;;;;11.50;90.40;;;;;;5054329;28;20011;-61
2022/11/08 04:44:00;;;;;;;;;;;11.60;90.50;;;;;;5036768;28;19912;-59
2022/11/08 04:46:27;;;;;;;;;;;11.60;90.70;;;;;;5071282;28;19908;-62
2022/11/08 04:48:53;;;;;;;;;;;11.50;91.30;;;;;;5074776;28;19904;-62
2022/11/08 04:51:20;;;;;;;;;;;11.40;90.90;;;;;;5074531;28;19914;-59
2022/11/08 04:53:46;;;;;;;;;;;11.30;91.20;;;;;;5072562;28;19916;-61
2022/11/08 04:56:12;;;;;;;;;;;11.30;91.30;;;;;;5074550;28;19904;-62
2022/11/08 04:58:42;;;;;;;;;;;11.30;91.40;;;;;;5074417;28;19919;-61
2022/11/08 05:01:08;;;;;;;;;;;11.30;91.50;;;;;;5074178;28;19915;-61
2022/11/08 05:03:34;;;;;;;;;;;11.30;91.20;;;;;;5074524;28;19904;-61
2022/11/08 05:06:04;;;;;;;;;;;11.40;91.20;;;;;;5074466;28;19904;-63
2022/11/08 05:08:30;;;;;;;;;;;11.40;91.30;;;;;;5074325;28;19911;-63
2022/11/08 05:10:59;;;;;;;;;;;11.40;91.30;;;;;;5074179;28;19904;-60
2022/11/08 05:13:24;;;;;;;;;;;11.40;91.20;;;;;;5074217;28;19908;-61
2022/11/08 05:15:50;;;;;;;;;;;11.50;91.00;;;;;;5074391;28;19904;-61
2022/11/08 05:18:15;;;;;;;;;;;11.60;91.00;;;;;;5074277;28;19908;-63
2022/11/08 05:23:25;;;;;;;;;;;11.50;91.00;;;;;;5073974;28;19958;-63
2022/11/08 05:25:54;;;;;;;;;;;11.60;90.90;;;;;;5074035;28;20357;-64
2022/11/08 05:28:20;;;;;;;;;;;11.60;90.80;;;;;;5073923;28;19905;-61
2022/11/08 05:30:55;;;;;;;;;;;11.60;90.80;;;;;;5073997;28;19962;-63
2022/11/08 05:33:21;;;;;;;;;;;11.70;90.80;;;;;;5055805;28;20384;-63
2022/11/08 05:35:47;;;;;;;;;;;11.70;90.90;;;;;;5073851;28;19905;-61
2022/11/08 05:38:12;;;;;;;;;;;11.60;90.70;;;;;;5072438;28;19908;-61
2022/11/08 05:40:38;;;;;;;;;;;11.60;90.70;;;;;;5073802;28;19909;-61
2022/11/08 05:43:03;;;;;;;;;;;11.60;90.70;;;;;;5073684;28;19904;-64
2022/11/08 05:45:29;;;;;;;;;;;11.60;90.90;;;;;;5073714;28;20002;-65
2022/11/08 05:47:56;;;;;;;;;;;11.60;91.10;;;;;;5073769;28;20013;-63
2022/11/08 05:50:22;;;;;;;;;;;11.60;91.00;;;;;;5073468;28;20372;-63
2022/11/08 05:52:48;;;;;;;;;;;11.70;91.00;;;;;;5073491;28;19908;-63
2022/11/08 05:55:13;;;;;;;;;;;11.70;91.20;;;;;;5073252;28;19919;-64
2022/11/08 05:57:42;;;;;;;;;;;11.70;90.80;;;;;;5073531;28;19939;-63
2022/11/08 06:00:08;;;;;;;;;;;11.70;90.80;;;;;;5062034;28;20261;-62
2022/11/08 06:02:34;;;;;;;;;;;11.70;90.70;;;;;;5053065;28;20369;-63
2022/11/08 06:05:01;;;;;;;;;;;11.80;90.70;;;;;;5053284;28;19912;-63
2022/11/08 06:07:27;;;;;;;;;;;11.70;90.70;;;;;;5053165;28;20011;-63
2022/11/08 06:09:52;;;;;;;;;;;11.70;90.90;;;;;;5053100;28;19988;-63
2022/11/08 06:12:18;;;;;;;;;;;11.70;90.80;;;;;;5053285;28;19908;-63
2022/11/08 06:14:44;;;;;;;;;;;11.70;90.80;;;;;;5053281;28;19948;-63
2022/11/08 06:17:09;;;;;;;;;;;11.70;90.90;;;;;;5053229;28;20296;-62
2022/11/08 06:19:35;;;;;;;;;;;11.60;91.20;;;;;;5052958;28;19905;-62
2022/11/08 06:22:00;;;;;;;;;;;11.60;91.20;;;;;;5035075;28;19913;-63
2022/11/08 06:24:26;;;;;;;;;;;11.60;91.10;;;;;;5052923;28;19909;-64
2022/11/08 06:26:51;;;;;;;;;;;11.70;91.00;;;;;;5053107;28;19904;-64
2022/11/08 06:29:17;;;;;;;;;;;11.80;90.90;;;;;;5052892;28;19905;-61
2022/11/08 06:31:42;;;;;;;;;;;11.80;90.70;;;;;;5052873;28;20357;-61
2022/11/08 06:34:08;;;;;;;;;;;11.80;90.70;;;;;;5053062;28;19905;-63
2022/11/08 06:36:34;;;;;;;;;;;11.90;90.90;;;;;;5052843;28;19955;-61
2022/11/08 06:39:00;;;;;;;;;;;11.80;90.80;;;;;;5051598;28;19954;-61
2022/11/08 06:41:26;;;;;;;;;;;11.80;91.20;;;;;;5052481;28;20011;-60
2022/11/08 06:43:51;;;;;;;;;;;11.80;90.90;;;;;;5052754;28;19913;-61
2022/11/08 06:46:17;;;;;;;;;;;11.80;90.80;;;;;;5052771;28;20399;-61
2022/11/08 06:48:43;;;;;;;;;;;11.90;90.70;;;;;;5052597;28;19928;-60
2022/11/08 06:51:08;;;;;;;;;;;12.00;91.00;;;;;;5052343;28;19912;-60
2022/11/08 06:53:34;;;;;;;;;;;12.00;90.90;;;;;;5052330;28;19913;-58
2022/11/08 06:56:00;;;;;;;;;;;12.10;90.50;;;;;;5052474;28;20360;-61
2022/11/08 06:58:25;;;;;;;;;;;12.10;90.50;;;;;;5052420;28;19951;-61
2022/11/08 07:00:51;;;;;;;;;;;12.10;90.40;;;;;;5052531;28;20308;-60
2022/11/08 07:03:17;;;;;;;;;;;12.20;90.30;;;;;;5052386;28;20335;-61
2022/11/08 07:05:42;;;;;;;;;;;12.20;90.30;;;;;;5052323;28;20318;-61
2022/11/08 07:08:08;;;;;;;;;;;12.10;90.20;;;;;;5052217;28;19904;-61
2022/11/08 07:10:33;;;;;;;;;;;12.10;90.60;;;;;;5052286;28;19905;-61
2022/11/08 07:13:09;;;;;;;;;;;12.10;90.50;;;;;;5052302;28;19911;-61
2022/11/08 07:15:35;;;;;;;;;;;12.10;90.10;;;;;;5052251;28;19912;-60
2022/11/08 07:18:01;;;;;;;;;;;12.20;90.00;;;;;;5052145;28;19905;-61
2022/11/08 07:20:27;;;;;;;;;;;12.20;90.00;;;;;;5051981;28;19913;-64
2022/11/08 07:22:56;;;;;;;;;;;12.30;89.80;;;;;;5034149;28;20047;-61
2022/11/08 07:25:23;;;;;;;;;;;12.30;89.20;;;;;;5052016;28;19927;-62
2022/11/08 07:27:49;;;;;;;;;;;12.40;88.80;;;;;;5052165;28;19905;-62
2022/11/08 07:30:15;;;;;;;;;;;12.40;88.80;;;;;;5052020;28;19909;-61
2022/11/08 07:32:40;;;;;;;;;;;12.40;88.90;;;;;;5052039;28;19905;-63
2022/11/08 07:35:06;;;;;;;;;;;12.50;88.20;;;;;;5051187;28;19913;-64
2022/11/08 07:37:32;;;;;;;;;;;12.50;88.30;;;;;;5033862;28;20254;-63
2022/11/08 07:39:57;;;;;;;;;;;12.60;87.90;;;;;;5051843;28;19905;-64
2022/11/08 07:42:23;;;;;;;;;;;12.60;87.90;;;;;;5051858;28;19962;-61
2022/11/08 07:44:48;;;;;;;;;;;12.70;87.10;;;;;;5051966;28;19912;-63
2022/11/08 07:47:14;;;;;;;;;;;12.80;86.00;;;;;;5051845;28;19913;-62
2022/11/08 07:49:40;;;;;;;;;;;12.80;87.10;;;;;;5051721;28;20415;-62
2022/11/08 07:52:05;;;;;;;;;;;12.90;86.30;;;;;;5051860;28;19905;-57
2022/11/08 07:54:31;;;;;;;;;;;12.80;85.50;;;;;;5051747;28;19913;-61
2022/11/08 07:56:56;;;;;;;;;;;12.80;86.10;;;;;;5051867;28;20404;-61
2022/11/08 07:59:22;;;;;;;;;;;12.80;86.00;;;;;;5051686;28;20392;-61
2022/11/08 08:01:47;;;;;;;;;;;12.90;86.40;;;;;;5052481;28;20365;-62
2022/11/08 08:04:13;;;;;;;;;;;12.80;86.00;;;;;;5055294;28;19916;-63
2022/11/08 08:06:38;;;;;;;;;;;12.90;86.30;;;;;;5055657;28;19904;-61
2022/11/08 08:09:04;;;;;;;;;;;13.00;85.30;;;;;;5055664;28;19950;-62
2022/11/08 08:11:29;;;;;;;;;;;13.00;85.00;;;;;;5037891;28;19908;-61
2022/11/08 08:13:55;;;;;;;;;;;13.00;85.40;;;;;;5055561;28;20364;-61
2022/11/08 08:16:21;;;;;;;;;;;12.90;85.60;;;;;;5037462;28;19912;-61
2022/11/08 08:18:49;;;;;;;;;;;12.90;86.40;;;;;;5055294;28;19935;-60
2022/11/08 08:21:15;;;;;;;;;;;12.90;86.20;;;;;;5055216;28;19916;-60
2022/11/08 08:23:40;;;;;;;;;;;13.00;85.10;;;;;;5055252;28;20312;-61
2022/11/08 08:26:06;;;;;;;;;;;12.90;85.30;;;;;;5055252;28;20011;-63
2022/11/08 08:28:32;;;;;;;;;;;12.90;83.70;;;;;;5037275;28;19940;-63
2022/11/08 08:30:57;;;;;;;;;;;12.90;84.10;;;;;;5055035;28;20288;-61
2022/11/08 08:33:23;;;;;;;;;;;12.90;84.20;;;;;;5054988;28;19911;-61
2022/11/08 08:35:50;;;;;;;;;;;13.00;84.60;;;;;;5037157;28;19909;-60
2022/11/08 08:38:16;;;;;;;;;;;13.10;84.30;;;;;;5055072;28;19905;-62
2022/11/08 08:40:42;;;;;;;;;;;13.10;84.10;;;;;;5055055;28;19916;-63
2022/11/08 08:43:07;;;;;;;;;;;13.00;84.30;;;;;;5055337;28;19909;-63
2022/11/08 08:45:33;;;;;;;;;;;13.00;85.30;;;;;;5054774;28;20003;-61
2022/11/08 08:47:59;;;;;;;;;;;13.10;85.10;;;;;;5054776;28;19940;-64
2022/11/08 08:50:25;;;;;;;;;;;13.20;83.00;;;;;;5054687;28;19905;-63
2022/11/08 08:52:51;;;;;;;;;;;13.10;82.40;;;;;;5036897;28;19904;-63
2022/11/08 08:55:17;;;;;;;;;;;13.20;79.60;;;;;;5054683;28;19913;-63
2022/11/08 08:57:43;;;;;;;;;;;13.20;79.80;;;;;;5054717;28;20361;-60
2022/11/08 09:00:09;;;;;;;;;;;13.30;78.50;;;;;;5054279;28;20405;-61
2022/11/08 09:02:34;;;;;;;;;;;13.40;76.10;;;;;;5054465;28;19905;-63
2022/11/08 09:05:00;;;;;;;;;;;13.50;73.40;;;;;;5054478;28;20365;-63
2022/11/08 09:07:25;;;;;;;;;;;13.50;76.10;;;;;;5054532;28;20431;-63
2022/11/08 09:09:51;;;;;;;;;;;13.50;75.40;;;;;;5054222;28;20354;-61
2022/11/08 09:12:16;;;;;;;;;;;13.50;75.90;;;;;;5054044;28;20284;-63
2022/11/08 09:14:42;;;;;;;;;;;13.50;76.40;;;;;;5054176;28;19905;-61
2022/11/08 09:17:08;;;;;;;;;;;13.60;77.10;;;;;;5054231;28;19904;-61
2022/11/08 09:19:33;;;;;;;;;;;13.70;77.10;;;;;;5036250;28;19951;-63
2022/11/08 09:21:59;;;;;;;;;;;13.70;76.10;;;;;;5054272;28;19916;-63
2022/11/08 09:24:24;;;;;;;;;;;13.60;74.50;;;;;;5054071;28;19904;-63
2022/11/08 09:26:50;;;;;;;;;;;13.60;74.90;;;;;;5054116;28;19904;-61
2022/11/08 09:29:15;;;;;;;;;;;13.60;76.00;;;;;;5054315;28;19904;-62
2022/11/08 09:31:41;;;;;;;;;;;13.60;75.50;;;;;;5053999;28;19908;-63
2022/11/08 09:34:07;;;;;;;;;;;13.70;76.30;;;;;;5053815;28;19912;-59
2022/11/08 09:36:32;;;;;;;;;;;13.80;75.90;;;;;;5053808;28;20357;-61
2022/11/08 09:38:58;;;;;;;;;;;13.90;74.30;;;;;;5053697;28;19905;-61
2022/11/08 09:41:55;;;;;;;;;;;14.00;74.50;;;;;;5053791;28;19999;-60
2022/11/08 09:44:21;;;;;;;;;;;14.00;73.40;;;;;;5013767;28;19904;-61
2022/11/08 09:46:51;;;;;;;;;;;14.00;72.90;;;;;;5053731;28;20392;-63
2022/11/08 09:49:28;;;;;;;;;;;13.90;73.10;;;;;;5053540;28;20397;-62
2022/11/08 09:51:53;;;;;;;;;;;14.00;73.90;;;;;;5053637;28;20082;-56
2022/11/08 09:54:23;;;;;;;;;;;14.00;73.40;;;;;;5053247;28;19964;-59
2022/11/08 09:56:51;;;;;;;;;;;14.00;73.30;;;;;;5035650;28;19905;-59
2022/11/08 09:59:17;;;;;;;;;;;14.10;74.00;;;;;;5053310;28;19915;-59
2022/11/08 10:01:42;;;;;;;;;;;14.10;73.30;;;;;;5053527;28;19909;-61
2022/11/08 10:04:13;;;;;;;;;;;14.10;74.40;;;;;;5053236;28;19904;-60
2022/11/08 10:06:39;;;;;;;;;;;;;;;;;;5053316;28;19905;-61
2022/11/08 10:09:05;;;;;;;;;;;;;;;;;;5052972;28;19915;-61
2022/11/08 10:11:31;;;;;;;;;;;;;;;;;;5053450;28;19911;-61
2022/11/08 10:13:57;;;;;;;;;;;;;;;;;;5035145;28;19947;-61
2022/11/08 10:16:23;;;;;;;;;;;;;;;;;;5035423;28;19905;-61
2022/11/08 10:18:49;;;;;;;;;;;;;;;;;;5053049;28;20304;-61
2022/11/08 10:21:15;;;;;;;;;;;;;;;;;;5034992;28;19988;-62
2022/11/08 10:23:41;;;;;;;;;;;;;;;;;;5052798;28;19912;-61
2022/11/08 10:26:07;;;;;;;;;;;;;;;;;;5052342;28;19908;-61
2022/11/08 10:28:32;;;;;;;;;;;;;;;;;;5052770;28;19905;-61
2022/11/08 10:30:58;;;;;;;;;;;;;;;;;;5052878;28;19901;-61
2022/11/08 10:33:24;;;;;;;;;;;;;;;;;;5052705;28;19912;-61
2022/11/08 10:35:50;;;;;;;;;;;;;;;;;;5053158;28;19907;-61
2022/11/08 10:38:16;;;;;;;;;;;;;;;;;;5053065;28;19911;-61
2022/11/08 10:40:42;;;;;;;;;;;;;;;;;;5052657;28;19909;-62
2022/11/08 10:43:08;;;;;;;;;;;;;;;;;;5034715;28;19905;-62
2022/11/08 10:45:34;;;;;;;;;;;;;;;;;;5052621;28;19950;-61
2022/11/08 10:48:00;;;;;;;;;;;;;;;;;;5052569;28;19905;-61
2022/11/08 10:50:26;;;;;;;;;;;;;;;;;;5052284;28;20380;-62
2022/11/08 10:52:52;;;;;;;;;;;;;;;;;;5052312;28;19913;-61
2022/11/08 10:55:18;;;;;;;;;;;;;;;;;;5091138;22;20016;-52
2022/11/08 10:57:44;;;;;;;;;;;;;;;;;;5071049;28;20375;-52
2022/11/08 11:00:10;;;;;;;;;;;;;;;;;;5072274;28;19908;-55
2022/11/08 11:02:36;;;;;;;;;;;;;;;;;;5072408;28;19915;-52
2022/11/08 11:05:02;;;;;;;;;;;;;;;;;;5072217;28;19943;-53
2022/11/08 11:07:28;;;;;;;;;;;;;;;;;;5072209;28;19904;-52
2022/11/08 11:09:54;;;;;;;;;;;;;;;;;;5072091;28;20283;-53
2022/11/08 11:12:20;;;;;;;;;;;;;;;;;;5072225;28;20000;-53
2022/11/08 11:14:46;;;;;;;;;;;;;;;;;;5072193;28;19904;-53
2022/11/08 11:17:12;;;;;;;;;;;;;;;;;;5072170;28;19938;-53
2022/11/08 11:19:38;;;;;;;;;;;;;;;;;;5070483;28;19962;-52
2022/11/08 11:22:04;;;;;;;;;;;;;;;;;;5072494;28;19920;-53
2022/11/08 11:24:30;;;;;;;;;;;;;;;;;;5082875;28;19978;-55
2022/11/08 11:26:56;;;;;;;;;;;;;;;;;;5072171;28;20265;-54
2022/11/08 11:29:22;;;;;;;;;;;;;;;;;;5071881;28;19910;-55
2022/11/08 11:31:49;;;;;;;;;;;;;;;;;;5071707;28;19917;-55
2022/11/08 11:34:15;;;;;;;;;;;;;;;;;;5075512;28;19908;-52
2022/11/08 11:36:41;;;;;;;;;;;;;;;;;;5073212;28;19912;-55
2022/11/08 11:39:08;;;;;;;;;;;;;;;;;;5075479;28;19918;-55
2022/11/08 11:41:34;;;;;;;;;;;;;;;;;;5075560;28;19919;-52
2022/11/08 11:44:00;;;;;;;;;;;;;;;;;;5075859;28;19913;-55
2022/11/08 11:46:25;;;;;;;;;;;;;;;;;;5075692;28;19916;-55
2022/11/08 11:48:51;;;;;;;;;;;;;;;;;;5075282;28;20007;-56
2022/11/08 11:51:17;;;;;;;;;;;;;;;;;;5075725;28;20011;-55
2022/11/08 11:53:43;;;;;;;;;;;;;;;;;;5075756;28;19908;-52
2022/11/08 11:56:09;;;;;;;;;;;;;;;;;;5075021;28;19908;-52
2022/11/08 11:58:35;;;;;;;;;;;;;;;;;;5075695;28;20430;-55
2022/11/08 12:01:01;;;;;;;;;;;;;;;;;;5074994;28;19912;-55
2022/11/08 12:03:27;;;;;;;;;;;;;;;;;;5076072;28;19932;-52
2022/11/08 12:05:53;;;;;;;;;;;;;;;;;;5075186;28;20389;-55
2022/11/08 12:08:19;;;;;;;;;;;;;;;;;;5074927;28;19979;-54
2022/11/08 12:10:45;;;;;;;;;;;;;;;;;;5076052;28;20437;-54
2022/11/08 12:13:11;;;;;;;;;;;;;;;;;;5075518;28;19957;-55
2022/11/08 12:15:37;;;;;;;;;;;;;;;;;;5077710;28;19954;-56
2022/11/08 12:18:03;;;;;;;;;;;;;;;;;;5073828;28;19990;-54
2022/11/08 12:20:29;;;;;;;;;;;;;;;;;;5074385;28;19913;-54
2022/11/08 12:22:55;;;;;;;;;;;;;;;;;;5091754;28;19904;-54
2022/11/08 12:25:21;;;;;;;;;;;;;;;;;;5081398;28;19931;-57
2022/11/08 12:27:46;;;;;;;;;;;;;;;;;;5074568;28;19904;-54
2022/11/08 12:30:12;;;;;;;;;;;;;;;;;;5074950;28;20456;-54
2022/11/08 12:32:38;;;;;;;;;;;;;;;;;;5074847;28;19908;-52
2022/11/08 12:35:04;;;;;;;;;;;;;;;;;;5073543;28;19915;-54
2022/11/08 12:37:30;;;;;;;;;;;;;;;;;;5073612;28;19947;-52
2022/11/08 12:39:56;;;;;;;;;;;;;;;;;;5075219;28;19904;-53
2022/11/08 12:42:22;;;;;;;;;;;;;;;;;;5074800;28;20386;-54
2022/11/08 12:44:48;;;;;;;;;;;;;;;;;;5074244;28;19982;-52
2022/11/08 12:47:14;;;;;;;;;;;;;;;;;;5072187;28;19909;-52
2022/11/08 12:49:40;;;;;;;;;;;;;;;;;;5073647;28;19999;-54
2022/11/08 12:52:06;;;;;;;;;;;;;;;;;;5073867;28;19915;-53
2022/11/08 12:54:32;;;;;;;;;;;;;;;;;;5074483;28;20010;-52
2022/11/08 12:56:58;;;;;;;;;;;;;;;;;;5074737;28;19904;-52
2022/11/08 12:59:24;;;;;;;;;;;;;;;;;;5073316;28;19911;-54
2022/11/08 13:01:49;;;;;;;;;;;;;;;;;;5072923;28;20338;-54
2022/11/08 13:04:17;;;;;;;;;;;;;;;;;;5072456;28;19991;-54
2022/11/08 13:06:43;;;;;;;;;;;;;;;;;;5074584;28;19991;-55
2022/11/08 13:09:09;;;;;;;;;;;;;;;;;;5074028;28;19946;-53
2022/11/08 13:11:35;;;;;;;;;;;;;;;;;;5074589;28;19943;-52
2022/11/08 13:14:01;;;;;;;;;;;;;;;;;;5074160;28;20376;-52
2022/11/08 13:16:27;;;;;;;;;;;;;;;;;;5072724;28;19948;-52
2022/11/08 13:18:53;;;;;;;;;;;;;;;;;;5074345;28;19947;-52
2022/11/08 13:21:19;;;;;;;;;;;;;;;;;;5073980;28;19955;-53
2022/11/08 13:23:45;;;;;;;;;;;;;;;;;;5074084;28;20575;-56
2022/11/08 13:26:11;;;;;;;;;;;;;;;;;;5074286;28;19958;-55
2022/11/08 13:28:37;;;;;;;;;;;;;;;;;;5072864;28;19954;-53
2022/11/08 13:31:03;;;;;;;;;;;;;;;;;;5073839;28;20368;-53
2022/11/08 13:33:29;;;;;;;;;;;;;;;;;;5073957;28;20373;-52
2022/11/08 13:35:55;;;;;;;;;;;;;;;;;;5073831;28;20399;-52
2022/11/08 13:38:21;;;;;;;;;;;;;;;;;;5073886;28;19905;-52
2022/11/08 13:40:47;;;;;;;;;;;;;;;;;;5073734;28;19919;-52
2022/11/08 13:43:13;;;;;;;;;;;;;;;;;;5073576;28;19911;-52
2022/11/08 13:45:39;;;;;;;;;;;;;;;;;;5072591;28;19908;-53
2022/11/08 13:48:05;;;;;;;;;;;;;;;;;;5073790;28;19955;-52
2022/11/08 13:50:32;;;;;;;;;;;;;;;;;;5073626;28;19908;-53
2022/11/08 13:52:58;;;;;;;;;;;;;;;;;;5073532;28;19915;-52
2022/11/08 13:55:24;;;;;;;;;;;;;;;;;;5073176;28;19913;-53
2022/11/08 13:57:50;;;;;;;;;;;;;;;;;;5073572;28;19923;-52
2022/11/08 14:00:16;;;;;;;;;;;;;;;;;;5071541;28;19991;-52
2022/11/08 14:02:42;;;;;;;;;;;;;;;;;;5072775;28;19905;-52
2022/11/08 14:05:07;;;;;;;;;;;;;;;;;;5072743;28;20322;-52
2022/11/08 14:07:33;;;;;;;;;;;;;;;;;;5073110;28;19909;-52
2022/11/08 14:09:59;;;;;;;;;;;;;;;;;;5072798;28;20261;-54
2022/11/08 14:12:25;;;;;;;;;;;;;;;;;;5073183;28;19927;-52
2022/11/08 14:14:51;;;;;;;;;;;;;;;;;;5073014;28;20356;-51
2022/11/08 14:17:17;;;;;;;;;;;;;;;;;;5072919;28;19911;-54
2022/11/08 14:19:43;;;;;;;;;;;;;;;;;;5072622;28;19908;-51
2022/11/08 14:22:09;;;;;;;;;;;;;;;;;;5072934;28;20007;-54
2022/11/08 14:24:35;;;;;;;;;;;;;;;;;;5072788;28;19915;-52
2022/11/08 14:27:01;;;;;;;;;;;;;;;;;;5073111;28;19958;-51
2022/11/08 14:29:27;;;;;;;;;;;;;;;;;;5072188;28;19904;-54
2022/11/08 14:31:53;;;;;;;;;;;;;;;;;;5071376;28;19904;-52
2022/11/08 14:34:19;;;;;;;;;;;;;;;;;;5072892;28;19904;-55
2022/11/08 14:36:44;;;;;;;;;;;;;;;;;;5072945;28;19904;-54
2022/11/08 14:39:10;;;;;;;;;;;;;;;;;;5072637;28;19954;-53
2022/11/08 14:41:36;;;;;;;;;;;13.90;73.50;;;;;;5070580;28;20300;-53
2022/11/08 14:44:02;;;;;;;;;;;16.40;69.20;;;;;;5071678;28;19909;-53
2022/11/08 14:46:36;;;;;;;;;;;16.20;69.50;;;;;;5069630;28;19907;-54
2022/11/08 14:49:20;;;;;;;;;;;16.20;69.60;;;;;;5070334;28;19916;-53
2022/11/08 14:51:46;;;;;;;;;;;16.10;68.20;;;;;;5070023;28;19995;-53
2022/11/08 14:54:14;;;;;;;;;;;16.10;69.60;;;;;;5070667;28;20015;-53
2022/11/08 14:56:42;;;;;;;;;;;16.20;69.00;;;;;;5071196;28;19920;-53
2022/11/08 14:59:09;;;;;;;;;;;16.10;68.60;;;;;;5071341;28;19908;-54
2022/11/08 15:01:34;;;;;;;;;;;16.10;69.20;;;;;;5071562;28;19986;-53
2022/11/08 15:04:17;;;;;;;;;;;16.00;69.70;;;;;;5069778;28;19912;-52
2022/11/08 15:06:45;;;;;;;;;;;16.10;70.80;;;;;;5070156;28;19915;-56
2022/11/08 15:09:17;;;;;;;;;;;16.20;69.70;;;;;;5070108;28;19934;-53
2022/11/08 15:11:47;;;;;;;;;;;16.20;69.60;;;;;;5071779;28;19909;-54